CheckWX is a tool to help pilots better visualize weather data.  It is not intended as a substitute for an official pre-flight weather briefing.

21:02:29 UTC

CYMH METAR
Mary's Harbour Airport
Mary's Harbour, Canada
Current

21 mins ago

CYMH 232041Z AUTO 31016G23KT 9SM CLR M14/M24 A2983 RMK SLP105
Observed
Feb-23 @ 20:41 UTC
Wind
  • 310° at 16 KTS
  • Gusting to 23 KTS
Visibility
9 SM
Flight Rules
VFR
Cloud Levels
  • Clear skies
Temperature
-14°C / 7°F
Dewpoint
-24°C / -11°F
Humidity
43%
Altimeter
29.83" Hg
Pressure
1010.5 hPa
Previous

1 hour ago

CYMH 232000Z AUTO 30013G21KT 9SM -SN CLR M13/M24 A2982 RMK SLP101
Observed
Feb-23 @ 20:00 UTC
Wind
  • 300° at 13 KTS
  • Gusting to 21 KTS
Visibility
9 SM
Flight Rules
VFR
Conditions
Light Snow
Cloud Levels
  • Clear skies
Temperature
-13°C / 9°F
Dewpoint
-24°C / -11°F
Humidity
39%
Altimeter
29.82" Hg
Pressure
1010.1 hPa
Previous

2 hours ago

CYMH 231931Z AUTO 30011G23KT 9SM -SN CLR M13/M24 A2982 RMK SLP100
Observed
Feb-23 @ 19:31 UTC
Wind
  • 300° at 11 KTS
  • Gusting to 23 KTS
Visibility
9 SM
Flight Rules
VFR
Conditions
Light Snow
Cloud Levels
  • Clear skies
Temperature
-13°C / 9°F
Dewpoint
-24°C / -11°F
Humidity
39%
Altimeter
29.82" Hg
Pressure
1010 hPa